• Join FlightAware (Why Join?)
  • Login
  • US Flag 
05:24PM EDT


 

Airport Tracker/Info


-or-


 

Live Flight TrackerFlight Track Log ✈ EJA583 ✈ 15-Sep-2013 ✈ KRKD - KPNE

Flight Track Log - Related Links

Times and Time Zones

All times are in EDT time to prevent confusion due to time zone crossing. See the EJA583 flight status page for this flight to view local times or setup timezone preferences in your user account.

Time Position Orientation Groundspeed Altitude Reporting Facility
EDT Latitude Longitude Course Direction KTS MPH feet Rate Location/Type
05:04PM 43.9989 -69.1958 219° Southwest 194 223 7,100  Level Boston Center
05:05PM 43.9308 -69.2225 196° South 225 259 10,300 2,820 Climbing Boston Center
05:06PM 43.8567 -69.2553 198° South 261 300 12,800 2,520 Climbing Boston Center
05:07PM 43.7742 -69.2914 198° South 290 334 15,300 2,520 Climbing Boston Center
05:08PM 43.5621 -69.6635 219° Southwest  Level FlightAware Approximate
05:08PM 43.6939 -69.3272 198° South 306 352 17,900  Level Boston Center
05:09PM 43.6094 -69.3603 196° South 313 360 20,700 2,160 Climbing Boston Center
05:10PM 43.5436 -69.3922 199° South 318 366 22,400 2,280 Climbing Boston Center
05:11PM 43.4425 -69.4344 197° South 323 372 25,200 2,460 Climbing Boston Center
05:12PM 43.3600 -69.4700 197° South 316 364 27,200 1,860 Climbing Boston Center
05:13PM 43.2733 -69.5056 197° South 321 369 29,000 1,440 Climbing Boston Center
05:14PM 43.1828 -69.5469 198° South 326 375 30,200 1,140 Climbing Boston Center
05:15PM 43.0900 -69.5883 198° South 344 396 31,400 1,320 Climbing Boston Center
05:16PM 42.9972 -69.6267 197° South 351 404 32,900 1,320 Climbing Boston Center
05:17PM 42.8981 -69.6681 197° South 361 415 34,000 1,200 Climbing Boston Center
05:18PM 42.8011 -69.7119 198° South 367 422 35,300 1,260 Climbing Boston Center
05:19PM 42.7000 -69.7533 197° South 373 429 36,700 1,200 Climbing Boston Center
05:20PM 42.6031 -69.7942 197° South 378 435 37,700 900 Climbing Boston Center
05:21PM 42.5122 -69.8317 197° South 378 435 38,500 840 Climbing Boston Center
05:22PM 42.4089 -69.8756 197° South 378 435 39,500 720 Climbing Boston Center
05:23PM 42.2953 -69.9250 198° South 386 444 40,000 240 Climbing Boston Center
05:24PM 42.2075 -70.0100 216° Southwest 381 438 40,000  Level Boston Center
05:25PM 42.1533 -70.1100 234° Southwest 387 445 40,000  Level Boston Center
05:26PM 42.0789 -70.2386 232° Southwest 393 452 40,000  Level Boston Center
05:27PM 42.0125 -70.3583 233° Southwest 398 458 40,000  Level Boston Center
05:28PM 41.9519 -70.4719 234° Southwest 394 453 40,000  Level Boston Center
05:29PM 41.8892 -70.5883 234° Southwest 389 448 40,000  Level Boston Center
05:30PM 41.8264 -70.7044 234° Southwest 389 448 40,000  Level Boston Center
05:31PM 41.7614 -70.8175 232° Southwest 389 448 40,000 -60 Level Boston Center
05:32PM 41.7006 -70.9414 237° Southwest 394 453 39,900 -600 Descending Boston Center
05:33PM 41.6375 -71.0569 234° Southwest 394 453 38,900 -1,020 Descending Boston Center
05:34PM 41.5764 -71.1692 234° Southwest 389 448 37,900 -1,200 Descending Boston Center
05:35PM 41.5128 -71.2814 233° Southwest 389 448 36,600 -1,680 Descending Boston Center
05:36PM 41.4494 -71.3933 233° Southwest 389 448 34,600 -2,280 Descending Boston Center
05:37PM 41.3878 -71.5050 234° Southwest 389 448 32,100 -2,340 Descending Boston Center
05:38PM 41.3219 -71.6081 230° Southwest 384 442 30,100 -1,080 Descending Boston Center
05:39PM 41.2622 -71.7139 233° Southwest 371 427 30,000 -60 Descending Boston Center
05:40PM 41.2003 -71.8250 233° Southwest 371 427 30,000  Level Boston Center
05:41PM 41.1342 -71.9386 232° Southwest 384 442 30,000  Level Boston Center
05:42PM 41.0661 -72.0631 234° Southwest 399 459 30,000  Level Boston Center
05:43PM 40.9997 -72.1789 233° Southwest 410 472 30,000 -240 Level Boston Center
05:44PM 40.9228 -72.3164 234° Southwest 415 478 29,600 -900 Descending Boston Center
05:45PM 40.8519 -72.4044 223° Southwest 410 472 28,200 -1,320 Descending Boston Center
05:46PM 40.7686 -72.5031 222° Southwest 402 463 27,000 -1,260 Descending Boston Center
05:47PM 40.6811 -72.5989 220° Southwest 407 468 25,700 -1,440 Descending Boston Center
05:48PM 40.5342 -72.7864 224° Southwest 419 482 23,100 -2,040 Descending New York Center
05:49PM 40.4575 -72.8797 223° Southwest 399 459 20,200 -3,180 Descending New York Center
05:50PM 40.3958 -72.9594 225° Southwest 362 417 16,800 -2,100 Descending New York Center
05:51PM 40.3147 -73.0522 221° Southwest 353 406 16,000 -420 Descending New York Center
05:52PM 40.2486 -73.1286 221° Southwest 357 411 16,000  Level New York Center
05:53PM 40.1694 -73.2264 223° Southwest 352 405 16,000 -600 Level New York Center
05:54PM 40.1053 -73.3003 221° Southwest 352 405 14,800 -1,740 Descending New York Center
05:55PM 40.0283 -73.3950 223° Southwest 347 399 12,600 -1,980 Descending New York Center
05:56PM 39.9642 -73.4683 221° Southwest 347 399 10,900 -1,800 Descending New York Center
05:57PM 39.9225 -73.5561 238° Southwest 304 350 9,100 -1,680 Descending New York Center
05:58PM 39.9328 -73.6486 278° West 263 303 7,600 -1,500 Descending New York Center
05:59PM 39.9639 -73.7392 294° West 250 288 6,100 -1,560 Descending New York Center
06:00PM 39.9967 -73.8353 294° West 265 305 4,500 -1,080 Descending New York Center
06:01PM 40.0178 -73.9067 291° West 254 292 4,000 -300 Descending New York Center
06:02PM 40.0447 -73.9894 293° West 248 285 4,000  Level New York Center
06:03PM 40.0733 -74.0828 292° West 254 292 4,000  Level New York Center
06:04PM 40.0981 -74.1656 291° West 249 287 4,000  Level New York Center
06:05PM 40.1250 -74.2483 293° West 249 287 4,000  Level New York Center
06:06PM 40.1478 -74.3200 293° West 249 287 4,000  Level New York Center
06:07PM 40.1742 -74.4111 291° West 249 287 4,000  Level New York Center
06:08PM 40.2008 -74.4939 293° West 249 287 4,000  Level New York Center
06:09PM 40.2086 -74.5733 277° West 249 287 4,000  Level New York Center
06:10PM 40.1914 -74.6511 254° West 228 262 4,100 -60 Climbing New York Center
06:11PM 40.2053 -74.7389 282° West 228 262 3,900 -600 Descending New York Center
06:12PM 40.2192 -74.8211 282° West 239 275 2,900 -900 Descending New York Center
06:13PM 40.1731 -74.8864 227° Southwest 211 243 2,100 -540 Descending New York Center
06:14PM 40.1469 -74.9175 222° Southwest 174 200 1,900 -480 Descending New York Center
06:15PM 40.1228 -74.9511 227° Southwest 132 152 1,200 -600 Descending New York Center
06:16PM 40.1011 -74.9797 225° Southwest 126 145 800 1,380 Descending New York Center
06:17PM 40.0728 -75.0133 222° Southwest 126 145 4,000 3,180 Climbing New York Center
06:19PM 40.0667 -75.0000 197° South  Level FlightAware Approximate